Time;durP1;ratioP1;P1;durP2;ratioP2;P2;SDS_P1;SDS_P2;PMS_P1;PMS_P2;Temp;Humidity;BMP_temperature;BMP_pressure;BME280_temperature;BME280_humidity;BME280_pressure;Samples;Min_cycle;Max_cycle;Signal;HPM_P1;HPM_P2
2022/09/01 00:01:34;;;;;;;12.05;7.10;;;;;;;19.85;74.74;100509.59;1651528;85;20928;-91
2022/09/01 00:04:04;;;;;;;7.62;6.67;;;;;;;19.83;74.30;100514.23;1650772;85;20998;-90
2022/09/01 00:06:32;;;;;;;10.90;7.50;;;;;;;19.81;74.01;100510.89;1651211;85;21022;-92
2022/09/01 00:09:03;;;;;;;7.65;6.85;;;;;;;19.78;73.75;100507.19;1651232;85;21843;-92
2022/09/01 00:11:30;;;;;;;8.35;7.25;;;;;;;19.79;73.54;100517.36;1651140;85;20958;-91
2022/09/01 00:13:57;;;;;;;11.00;8.25;;;;;;;19.76;73.38;100519.81;1651402;85;21562;-92
2022/09/01 00:16:24;;;;;;;13.32;10.40;;;;;;;19.75;73.13;100524.81;1651132;85;20879;-90
2022/09/01 00:18:54;;;;;;;8.20;6.65;;;;;;;19.76;72.76;100522.47;1651118;86;21010;-90
2022/09/01 00:21:25;;;;;;;9.33;6.67;;;;;;;19.76;72.75;100523.80;1651384;85;21223;-91
2022/09/01 00:23:52;;;;;;;9.58;6.60;;;;;;;19.78;72.53;100520.50;1650739;85;20924;-91
2022/09/01 00:26:19;;;;;;;7.60;5.75;;;;;;;19.81;72.23;100532.66;1651473;85;20951;-92
2022/09/01 00:28:46;;;;;;;8.13;6.72;;;;;;;19.83;71.87;100526.69;1651576;85;20956;-91
2022/09/01 00:31:15;;;;;;;7.55;6.70;;;;;;;19.83;71.64;100537.33;1651380;85;20951;-92
2022/09/01 00:33:43;;;;;;;8.10;6.50;;;;;;;19.84;71.46;100535.02;1651508;85;21476;-91
2022/09/01 00:36:10;;;;;;;9.48;6.17;;;;;;;19.87;71.60;100539.52;1651479;85;21003;-91
2022/09/01 00:38:38;;;;;;;12.33;7.20;;;;;;;19.87;71.68;100544.02;1651433;85;20936;-92
2022/09/01 00:41:06;;;;;;;10.80;6.75;;;;;;;19.87;71.81;100546.68;1651240;85;20975;-91
2022/09/01 00:43:45;;;;;;;9.68;6.12;;;;;;;19.86;72.03;100535.20;1651117;85;20944;-92
2022/09/01 00:46:19;;;;;;;10.88;7.40;;;;;;;19.85;72.08;100534.88;1650109;85;21653;-91
2022/09/01 00:48:59;;;;;;;6.65;6.03;;;;;;;19.84;72.45;100527.04;1650949;85;21373;-91
2022/09/01 00:51:26;;;;;;;10.03;6.45;;;;;;;19.81;72.72;100526.00;1650753;85;20971;-91
2022/09/01 00:53:56;;;;;;;9.05;6.37;;;;;;;19.80;72.85;100521.18;1614643;85;20939;-92
2022/09/01 00:56:23;;;;;;;7.28;6.62;;;;;;;19.80;72.99;100522.52;1652032;87;20951;-92
2022/09/01 00:58:50;;;;;;;7.10;6.33;;;;;;;19.81;73.11;100520.67;1638128;86;21180;-91
2022/09/01 01:01:17;;;;;;;8.53;6.95;;;;;;;19.81;73.03;100519.34;1652976;85;20876;-92
2022/09/01 01:03:45;;;;;;;6.85;6.22;;;;;;;19.82;73.01;100505.06;1653216;83;20931;-91
2022/09/01 01:06:15;;;;;;;7.00;6.30;;;;;;;19.81;72.98;100504.24;1652612;84;20959;-92
2022/09/01 01:08:56;;;;;;;8.18;6.20;;;;;;;19.81;72.97;100504.70;1658855;85;20999;-91
2022/09/01 01:11:17;;;;;;;11.55;6.47;;;;;;;19.78;73.00;100501.87;1650783;85;22081;-91
2022/09/01 01:13:53;;;;;;;11.75;7.53;;;;;;;19.75;73.20;100505.35;1650849;85;21489;-92
2022/09/01 01:16:21;;;;;;;8.78;7.15;;;;;;;19.72;73.40;100505.64;1650901;85;20931;-90
2022/09/01 01:18:50;;;;;;;10.72;7.47;;;;;;;19.67;73.67;100505.60;1650794;85;21108;-91
2022/09/01 01:24:30;;;;;;;10.65;6.72;;;;;;;19.61;74.18;100509.38;1650724;85;21133;-91
2022/09/01 01:26:58;;;;;;;7.80;7.03;;;;;;;19.56;74.67;100507.65;1650845;85;20990;-92
2022/09/01 01:29:32;;;;;;;8.63;6.45;;;;;;;19.51;75.05;100500.63;1651078;85;20963;-92
2022/09/01 01:32:00;;;;;;;8.17;6.63;;;;;;;19.48;75.28;100508.92;1652786;85;20999;-90
2022/09/01 01:34:27;;;;;;;9.38;7.12;;;;;;;19.41;75.37;100510.03;1651834;86;21075;-91
2022/09/01 01:37:00;;;;;;;10.10;6.87;;;;;;;19.34;75.49;100507.14;1651006;87;21277;-91
2022/09/01 01:39:27;;;;;;;8.55;7.00;;;;;;;19.30;75.62;100499.59;1650624;85;20888;-90
2022/09/01 01:41:57;;;;;;;7.75;7.05;;;;;;;19.28;75.81;100501.09;1650700;85;21006;-91
2022/09/01 01:44:27;;;;;;;9.23;6.83;;;;;;;19.24;75.89;100500.55;1650674;85;20887;-91
2022/09/01 01:46:56;;;;;;;7.67;6.67;;;;;;;19.21;75.91;100504.02;1650630;85;21369;-91
2022/09/01 01:49:29;;;;;;;9.78;7.33;;;;;;;19.17;75.97;100511.45;1650551;85;21177;-92
2022/09/01 01:51:59;;;;;;;8.23;7.42;;;;;;;19.14;76.02;100512.23;1650585;85;20912;-92
2022/09/01 01:54:30;;;;;;;9.18;7.25;;;;;;;19.10;76.09;100524.14;1650252;85;20960;-92
2022/09/01 01:56:54;;;;;;;9.55;7.60;;;;;;;19.05;76.21;100534.76;1650480;85;20959;-92
2022/09/01 01:59:23;;;;;;;7.35;6.65;;;;;;;19.01;76.49;100525.91;1651014;85;20924;-92
2022/09/01 02:01:50;;;;;;;6.95;6.17;;;;;;;18.98;76.75;100528.34;1651394;85;21225;-94
2022/09/01 02:04:19;;;;;;;8.58;6.80;;;;;;;18.95;76.89;100522.01;1651170;85;21393;-92
2022/09/01 02:06:46;;;;;;;8.68;6.83;;;;;;;18.95;77.07;100527.83;1635364;86;20947;-90
2022/09/01 02:09:17;;;;;;;9.73;7.08;;;;;;;18.93;77.16;100533.78;1650912;86;21441;-90
2022/09/01 02:11:45;;;;;;;9.23;6.92;;;;;;;18.90;77.19;100523.42;1652369;85;20947;-90
2022/09/01 02:14:13;;;;;;;9.95;6.53;;;;;;;18.90;77.24;100524.28;1651711;85;21150;-91
2022/09/01 02:16:41;;;;;;;7.60;6.22;;;;;;;18.88;77.30;100525.42;1651663;85;21448;-91
2022/09/01 02:19:09;;;;;;;9.30;6.83;;;;;;;18.87;77.05;100525.06;1660229;85;20896;-90
2022/09/01 02:21:43;;;;;;;10.05;7.10;;;;;;;18.87;76.94;100529.05;1663735;85;20940;-88
2022/09/01 02:24:07;;;;;;;11.10;7.65;;;;;;;18.86;76.74;100532.20;1662159;85;21417;-92
2022/09/01 02:26:39;;;;;;;8.45;6.80;;;;;;;18.84;76.59;100532.34;1661964;85;21158;-92
2022/09/01 02:29:16;;;;;;;7.78;6.97;;;;;;;18.85;76.67;100533.17;1662189;85;20956;-95
2022/09/01 02:31:40;;;;;;;8.48;6.62;;;;;;;18.84;76.75;100524.87;1661605;85;20983;-92
2022/09/01 02:34:12;;;;;;;12.28;6.80;;;;;;;18.83;76.75;100523.18;1662091;85;21038;-91
2022/09/01 02:36:41;;;;;;;10.85;6.33;;;;;;;18.81;76.84;100524.68;1661910;85;20968;-91
2022/09/01 02:39:06;;;;;;;7.65;6.62;;;;;;;18.80;76.85;100524.81;1661944;85;21782;-92
2022/09/01 02:41:33;;;;;;;7.58;6.75;;;;;;;18.80;76.81;100536.77;1662050;85;20959;-90
2022/09/01 02:44:02;;;;;;;13.43;8.23;;;;;;;18.78;76.70;100537.41;1662490;85;20944;-92
2022/09/01 02:46:30;;;;;;;8.13;6.83;;;;;;;18.76;76.87;100534.86;1662832;85;20995;-91
2022/09/01 02:48:59;;;;;;;10.35;7.45;;;;;;;18.75;77.01;100531.05;1664957;85;20932;-90
2022/09/01 02:51:25;;;;;;;7.50;6.83;;;;;;;18.73;77.13;100534.34;1669699;83;21267;-91
2022/09/01 02:53:52;;;;;;;7.72;6.75;;;;;;;18.70;77.29;100533.28;1662569;85;21514;-90
2022/09/01 02:56:22;;;;;;;8.08;6.87;;;;;;;18.67;77.34;100530.44;1662636;85;20939;-90
2022/09/01 02:58:49;;;;;;;12.50;7.10;;;;;;;18.64;77.34;100536.05;1662125;85;20967;-92
2022/09/01 03:01:24;;;;;;;8.05;7.12;;;;;;;18.60;77.53;100535.49;1645280;85;20971;-89
2022/09/01 03:03:55;;;;;;;8.88;6.95;;;;;;;18.58;77.79;100533.47;1662582;85;21329;-89
2022/09/01 03:06:22;;;;;;;8.93;7.47;;;;;;;18.57;77.76;100530.98;1662211;85;21559;-90
2022/09/01 03:08:54;;;;;;;13.62;7.55;;;;;;;18.54;77.79;100529.46;1662146;85;21006;-91
2022/09/01 03:11:23;;;;;;;7.08;6.47;;;;;;;18.53;77.87;100533.08;1662153;83;21015;-90
2022/09/01 03:13:52;;;;;;;8.65;7.85;;;;;;;18.49;77.84;100535.68;1662055;85;21414;-91
2022/09/01 03:16:21;;;;;;;7.75;6.95;;;;;;;18.47;77.87;100540.30;1662200;85;21971;-90
2022/09/01 03:18:49;;;;;;;7.65;6.85;;;;;;;18.45;78.02;100547.57;1661920;84;20928;-90
2022/09/01 03:21:17;;;;;;;8.13;6.80;;;;;;;18.42;78.15;100542.56;1662032;85;20982;-89
2022/09/01 03:23:44;;;;;;;7.10;6.50;;;;;;;18.40;78.29;100543.19;1662057;85;20905;-90
2022/09/01 03:26:12;;;;;;;8.00;6.70;;;;;;;18.36;78.40;100541.80;1662028;85;20971;-91
2022/09/01 03:28:40;;;;;;;9.15;7.17;;;;;;;18.33;78.54;100542.94;1661926;85;21184;-90
2022/09/01 03:31:07;;;;;;;9.88;7.03;;;;;;;18.32;78.80;100541.74;1663076;85;20945;-88
2022/09/01 03:33:35;;;;;;;8.50;6.85;;;;;;;18.32;78.91;100548.38;1662349;85;20888;-90
2022/09/01 03:36:04;;;;;;;8.73;6.55;;;;;;;18.32;78.92;100553.22;1661897;85;21019;-89
2022/09/01 03:38:32;;;;;;;8.23;6.35;;;;;;;18.34;79.02;100554.39;1662228;85;20979;-91
2022/09/01 03:41:03;;;;;;;11.28;7.47;;;;;;;18.35;79.28;100553.42;1662303;85;21182;-92
2022/09/01 03:43:32;;;;;;;9.83;6.78;;;;;;;18.37;79.27;100548.80;1662149;85;21412;-90
2022/09/01 03:45:59;;;;;;;10.85;6.83;;;;;;;18.40;79.25;100549.83;1663040;85;21034;-90
2022/09/01 03:48:30;;;;;;;10.35;7.00;;;;;;;18.42;79.03;100556.67;1663560;85;21393;-91
2022/09/01 03:51:01;;;;;;;10.10;6.25;;;;;;;18.46;78.80;100557.73;1662507;85;20924;-92
2022/09/01 03:53:33;;;;;;;7.65;6.05;;;;;;;18.50;78.59;100564.39;1662192;85;21169;-92
2022/09/01 03:56:03;;;;;;;8.88;7.53;;;;;;;18.52;78.49;100565.09;1662170;85;20948;-91
2022/09/01 03:58:31;;;;;;;7.72;6.90;;;;;;;18.55;78.23;100565.65;1663911;85;20971;-89
2022/09/01 04:01:01;;;;;;;11.95;8.35;;;;;;;18.59;78.15;100556.41;1646881;84;20976;-90
2022/09/01 04:03:31;;;;;;;9.63;6.10;;;;;;;18.62;78.09;100554.78;1664666;83;20857;-91
2022/09/01 04:05:59;;;;;;;9.10;5.85;;;;;;;18.68;77.82;100561.34;1664587;83;21109;-90
2022/09/01 04:08:29;;;;;;;9.23;6.55;;;;;;;18.74;77.85;100558.58;1664893;83;20911;-92
2022/09/01 04:10:55;;;;;;;8.80;6.53;;;;;;;18.80;77.66;100564.67;1662206;85;21457;-91
2022/09/01 04:13:29;;;;;;;10.15;7.55;;;;;;;18.85;77.56;100567.72;1662145;85;20941;-90
2022/09/01 04:15:57;;;;;;;7.87;6.05;;;;;;;18.90;77.50;100571.26;1661516;85;20955;-91
2022/09/01 04:18:24;;;;;;;12.55;6.50;;;;;;;18.97;77.59;100576.35;1644829;85;22414;-95
2022/09/01 04:20:58;;;;;;;8.48;6.78;;;;;;;19.01;77.51;100578.56;1662552;85;21023;-91
2022/09/01 04:23:35;;;;;;;10.43;6.40;;;;;;;19.11;77.42;100577.67;1611924;87;20941;-92
2022/09/01 04:26:13;;;;;;;8.58;6.42;;;;;;;19.18;77.26;100575.58;1665094;83;20901;-92
2022/09/01 04:28:49;;;;;;;9.65;5.72;;;;;;;19.27;77.09;100577.84;1664830;83;21297;-91
2022/09/01 04:31:17;;;;;;;8.68;5.47;;;;;;;19.34;76.86;100578.08;1663963;83;21158;-92
2022/09/01 04:33:47;;;;;;;12.80;5.67;;;;;;;19.41;76.59;100577.34;1665110;85;20916;-91
2022/09/01 04:36:21;;;;;;;6.28;4.65;;;;;;;19.51;76.26;100582.59;1664596;83;20956;-91
2022/09/01 04:38:53;;;;;;;8.05;4.72;;;;;;;19.58;75.87;100584.98;1664583;83;20951;-93
2022/09/01 04:41:33;;;;;;;5.47;4.85;;;;;;;19.67;75.53;100577.44;1674137;84;20978;-92
2022/09/01 04:44:03;;;;;;;5.95;5.10;;;;;;;19.76;75.15;100578.86;1610262;87;21239;-90
2022/09/01 04:46:39;;;;;;;6.47;4.55;;;;;;;19.85;74.65;100582.78;1662681;85;21464;-90
2022/09/01 04:49:09;;;;;;;8.80;4.85;;;;;;;19.95;74.17;100579.20;1663360;85;20907;-91
2022/09/01 04:51:43;;;;;;;8.38;4.95;;;;;;;20.01;74.04;100579.42;1662816;85;21083;-91
2022/09/01 04:54:12;;;;;;;5.80;5.05;;;;;;;20.14;73.78;100582.16;1662589;85;20943;-90
2022/09/01 04:56:43;;;;;;;9.20;5.37;;;;;;;20.25;73.39;100580.57;1662427;85;21003;-91
2022/09/01 04:59:13;;;;;;;6.83;4.87;;;;;;;20.38;72.86;100570.84;1662605;85;20971;-90
2022/09/01 05:01:44;;;;;;;7.83;4.85;;;;;;;20.53;72.50;100571.93;1662672;83;20931;-89
2022/09/01 05:04:17;;;;;;;7.83;5.33;;;;;;;20.68;71.99;100569.55;1662912;85;21019;-90
2022/09/01 05:06:49;;;;;;;3.47;3.17;;;;;;;20.84;71.51;100572.28;1663340;85;21045;-90
2022/09/01 05:09:18;;;;;;;4.45;3.22;;;;;;;21.03;70.33;100568.53;1664044;85;21798;-90
2022/09/01 05:11:48;;;;;;;3.90;3.27;;;;;;;21.19;68.87;100568.22;1664241;83;20931;-90
2022/09/01 05:14:17;;;;;;;5.42;3.45;;;;;;;21.30;68.09;100566.61;1672802;84;20935;-91
2022/09/01 05:16:49;;;;;;;5.12;3.50;;;;;;;21.42;67.18;100569.32;1673388;84;20916;-92
2022/09/01 05:19:19;;;;;;;5.10;3.25;;;;;;;21.50;66.34;100568.52;1671837;84;20927;-91
2022/09/01 05:21:46;;;;;;;4.08;3.20;;;;;;;21.58;65.93;100557.00;1672330;84;21280;-93
2022/09/01 05:24:18;;;;;;;4.47;3.30;;;;;;;21.67;65.46;100562.68;1672430;84;20950;-92
2022/09/01 05:26:46;;;;;;;7.72;2.87;;;;;;;21.81;64.96;100566.04;1672063;84;20947;-92
2022/09/01 05:29:14;;;;;;;6.65;2.98;;;;;;;21.97;64.11;100559.86;1671879;83;21010;-92
2022/09/01 05:31:44;;;;;;;5.53;3.52;;;;;;;22.09;63.68;100565.68;1672245;84;20935;-91
2022/09/01 05:34:14;;;;;;;4.05;3.27;;;;;;;22.20;62.78;100577.86;1671982;84;21808;-90
2022/09/01 05:36:49;;;;;;;3.45;3.02;;;;;;;22.28;62.34;100571.21;1671960;84;20939;-90
2022/09/01 05:39:14;;;;;;;5.80;3.25;;;;;;;22.43;62.23;100572.16;1671872;84;21424;-93
2022/09/01 05:41:41;;;;;;;3.90;2.98;;;;;;;22.63;61.64;100568.59;1671808;84;20970;-93
2022/09/01 05:44:08;;;;;;;10.20;8.23;;;;;;;22.76;60.21;100566.72;1671753;83;20959;-90
2022/09/01 05:46:37;;;;;;;16.80;15.03;;;;;;;22.79;59.76;100568.20;1671641;84;21737;-90
2022/09/01 05:49:12;;;;;;;6.15;3.30;;;;;;;22.81;59.39;100562.19;1671538;83;20943;-85
2022/09/01 05:52:38;;;;;;;4.17;3.52;;;;;;;22.92;59.03;100561.32;1854934;76;22538;-89
2022/09/01 05:55:08;;;;;;;3.42;2.92;;;;;;;22.96;58.62;100567.96;1817788;78;20847;-88
2022/09/01 05:57:38;;;;;;;3.22;2.90;;;;;;;23.04;58.42;100573.83;1822821;78;21210;-89
2022/09/01 06:00:12;;;;;;;5.62;3.08;;;;;;;23.13;58.09;100574.11;1822525;78;20868;-88
2022/09/01 06:02:41;;;;;;;12.25;11.00;;;;;;;23.22;57.93;100570.89;1822675;78;21473;-87
2022/09/01 06:05:10;;;;;;;5.30;3.37;;;;;;;23.33;57.70;100566.98;1822589;78;20986;-89
2022/09/01 06:07:39;;;;;;;8.98;4.25;;;;;;;23.41;57.70;100568.28;1822570;78;21346;-87
2022/09/01 06:10:07;;;;;;;5.65;2.90;;;;;;;23.47;57.56;100574.75;1822940;78;21685;-90
2022/09/01 06:12:36;;;;;;;4.55;3.37;;;;;;;23.44;57.11;100575.11;1822756;78;21384;-89
2022/09/01 06:15:14;;;;;;;8.40;6.33;;;;;;;23.46;57.44;100581.12;1823164;78;21371;-89
2022/09/01 06:17:33;;;;;;;24.02;17.87;;;;;;;23.51;56.86;100588.94;1821789;78;20906;-89
2022/09/01 06:20:09;;;;;;;5.12;3.87;;;;;;;23.46;56.54;100585.97;1823455;78;20939;-91
2022/09/01 06:22:33;;;;;;;5.85;3.35;;;;;;;23.45;56.64;100588.81;1822227;78;21175;-88
2022/09/01 06:25:00;;;;;;;4.08;3.17;;;;;;;23.42;56.68;100588.66;1822685;78;21598;-89
2022/09/01 06:27:27;;;;;;;3.90;3.15;;;;;;;23.46;56.86;100592.66;1823156;78;20836;-90
2022/09/01 06:29:55;;;;;;;5.05;3.20;;;;;;;23.55;57.09;100591.59;1823113;78;20933;-88
2022/09/01 06:32:24;;;;;;;4.47;2.30;;;;;;;23.72;56.54;100592.80;1823465;78;20938;-90
2022/09/01 06:34:51;;;;;;;5.60;2.75;;;;;;;23.91;56.23;100591.53;1823561;78;21275;-90
2022/09/01 06:37:21;;;;;;;5.15;3.25;;;;;;;24.10;55.54;100587.02;1823550;78;22377;-91
2022/09/01 06:39:46;;;;;;;2.65;2.42;;;;;;;24.24;55.29;100584.03;1823357;78;20895;-91
2022/09/01 06:42:14;;;;;;;5.42;2.75;;;;;;;24.40;55.20;100590.56;1823197;78;20939;-91
2022/09/01 06:44:45;;;;;;;9.08;2.92;;;;;;;24.60;54.59;100592.23;1822210;78;21341;-90
2022/09/01 06:47:14;;;;;;;7.58;2.37;;;;;;;24.90;54.51;100597.59;1822932;78;21695;-91
2022/09/01 06:49:40;;;;;;;2.67;2.37;;;;;;;25.23;53.98;100595.84;1823523;78;20989;-91
2022/09/01 06:52:12;;;;;;;16.12;14.63;;;;;;;25.52;52.62;100600.29;1822891;78;20919;-91
2022/09/01 06:54:42;;;;;;;5.97;5.45;;;;;;;25.69;51.45;100605.44;1823932;78;20970;-89
2022/09/01 06:57:11;;;;;;;5.85;4.92;;;;;;;25.85;50.66;100595.24;1824804;78;20947;-90
2022/09/01 06:59:38;;;;;;;3.92;2.80;;;;;;;26.03;50.25;100604.24;1823938;78;21132;-91
2022/09/01 07:02:15;;;;;;;2.52;2.33;;;;;;;26.36;49.59;100607.67;1825149;77;20939;-90
2022/09/01 07:04:45;;;;;;;4.75;3.02;;;;;;;26.68;48.77;100605.45;1812039;77;20892;-90
2022/09/01 07:07:14;;;;;;;3.08;2.50;;;;;;;27.01;48.12;100610.14;1825173;77;20883;-92
2022/09/01 07:09:57;;;;;;;2.45;2.00;;;;;;;27.30;47.32;100613.08;1824705;77;20839;-90
2022/09/01 07:12:28;;;;;;;12.68;2.42;;;;;;;27.65;46.73;100607.06;1822275;78;21261;-91
2022/09/01 07:14:58;;;;;;;41.25;37.80;;;;;;;27.99;45.74;100609.82;1824000;78;20888;-91
2022/09/01 07:17:25;;;;;;;26.60;24.25;;;;;;;28.26;44.97;100598.53;1733227;81;20892;-92
2022/09/01 07:19:54;;;;;;;6.85;4.12;;;;;;;28.49;44.58;100591.36;1758209;81;20986;-92
2022/09/01 07:22:21;;;;;;;4.70;2.72;;;;;;;28.77;43.62;100599.67;1758136;81;21630;-91
2022/09/01 07:24:50;;;;;;;3.30;2.58;;;;;;;29.06;42.98;100596.96;1733287;81;21228;-92
2022/09/01 07:27:24;;;;;;;8.10;1.92;;;;;;;29.33;42.34;100593.66;1756312;80;20944;-91
2022/09/01 07:29:51;;;;;;;4.75;3.75;;;;;;;29.60;41.69;100591.62;1758184;81;20916;-91
2022/09/01 07:32:19;;;;;;;11.83;4.00;;;;;;;29.85;40.87;100590.31;1757982;81;20931;-93
2022/09/01 07:34:47;;;;;;;3.98;2.50;;;;;;;30.14;40.69;100586.11;1758616;81;20879;-92
2022/09/01 07:37:16;;;;;;;3.27;2.08;;;;;;;30.57;40.03;100581.25;1758012;81;22895;-90
2022/09/01 07:39:47;;;;;;;2.85;2.10;;;;;;;30.89;38.91;100580.30;1758135;81;20951;-90
2022/09/01 07:42:29;;;;;;;2.72;1.67;;;;;;;31.18;38.80;100579.48;1757213;81;20931;-92
2022/09/01 07:45:16;;;;;;;3.40;1.47;;;;;;;31.58;37.69;100578.93;1760397;80;20955;-92
2022/09/01 07:47:45;;;;;;;2.22;1.77;;;;;;;31.87;36.96;100580.99;1741807;78;20959;-92
2022/09/01 07:50:14;;;;;;;3.95;1.47;;;;;;;32.12;36.48;100576.19;1823640;78;21069;-90
2022/09/01 07:52:42;;;;;;;8.73;8.00;;;;;;;32.43;35.96;100564.67;1774818;78;20986;-95
2022/09/01 07:55:12;;;;;;;3.92;3.55;;;;;;;32.78;35.57;100570.60;1798980;78;21396;-91
2022/09/01 07:57:41;;;;;;;16.75;15.28;;;;;;;33.11;34.69;100569.92;1799321;78;20919;-90
2022/09/01 08:00:13;;;;;;;6.95;6.12;;;;;;;33.18;34.16;100573.85;1800147;78;20974;-92
2022/09/01 08:02:45;;;;;;;5.60;3.55;;;;;;;33.11;33.79;100570.47;1799855;79;21245;-89
2022/09/01 08:05:19;;;;;;;7.12;1.60;;;;;;;33.04;33.72;100574.66;1800505;79;20966;-90
2022/09/01 08:07:48;;;;;;;3.22;2.90;;;;;;;33.12;34.08;100570.20;1771823;79;20918;-92
2022/09/01 08:10:16;;;;;;;2.65;1.30;;;;;;;33.35;33.76;100572.52;1800295;78;20979;-93
2022/09/01 08:12:45;;;;;;;3.00;1.55;;;;;;;33.69;33.51;100565.80;1799830;77;21436;-91
2022/09/01 08:15:17;;;;;;;6.28;1.90;;;;;;;34.10;32.97;100569.15;1799433;78;21308;-91
2022/09/01 08:17:45;;;;;;;;;;;;;;;34.51;32.41;100561.05;1802539;78;20828;-91
2022/09/01 08:20:14;;;;;;;10.55;1.57;;;;;;;34.85;30.98;100557.67;1799419;78;20083;-93
2022/09/01 08:23:02;;;;;;;2.35;1.15;;;;;;;34.68;30.43;100550.10;1799908;78;20997;-92
2022/09/01 08:25:35;;;;;;;4.03;1.30;;;;;;;34.81;30.50;100552.98;1800289;77;20930;-91
2022/09/01 08:28:03;;;;;;;4.83;1.22;;;;;;;35.10;30.36;100549.48;1772061;79;20872;-91
2022/09/01 08:30:34;;;;;;;2.22;1.00;;;;;;;35.29;29.71;100549.98;1800140;79;21006;-93
2022/09/01 08:33:03;;;;;;;1.27;0.98;;;;;;;35.34;29.30;100543.75;1800285;79;20895;-93
2022/09/01 08:35:30;;;;;;;1.77;0.68;;;;;;;35.24;29.12;100552.64;1799326;79;20958;-90
2022/09/01 08:37:58;;;;;;;3.77;1.12;;;;;;;35.21;29.88;100553.98;1799340;77;20903;-90
2022/09/01 08:40:26;;;;;;;1.90;0.80;;;;;;;35.35;29.26;100553.05;1799000;78;21410;-94
2022/09/01 08:43:08;;;;;;;1.20;0.95;;;;;;;35.45;28.82;100555.84;1798373;78;21451;-92
2022/09/01 08:45:44;;;;;;;5.87;5.42;;;;;;;35.41;28.78;100547.08;1798793;79;21353;-90
2022/09/01 08:48:25;;;;;;;5.00;2.55;;;;;;;35.25;28.50;100552.39;1798770;79;21185;-92
2022/09/01 08:50:56;;;;;;;9.03;8.28;;;;;;;35.16;28.67;100538.13;1798283;77;20978;-93
2022/09/01 08:53:48;;;;;;;1.72;1.30;;;;;;;35.22;28.45;100539.84;1768533;79;21284;-92
2022/09/01 08:56:15;;;;;;;1.32;1.00;;;;;;;35.21;28.37;100543.08;1769807;79;20919;-93
2022/09/01 08:58:42;;;;;;;2.58;1.17;;;;;;;35.09;28.11;100531.49;1798857;77;20927;-91
2022/09/01 09:01:41;;;;;;;3.35;2.02;;;;;;;35.00;28.20;100535.22;1799226;78;20922;-93
2022/09/01 09:04:51;;;;;;;1.12;0.75;;;;;;;35.03;28.43;100532.52;1798473;79;20864;-91
2022/09/01 09:07:52;;;;;;;2.70;1.57;;;;;;;35.08;27.73;100532.04;1798717;78;21256;-93
2022/09/01 09:10:29;;;;;;;5.53;1.35;;;;;;;34.92;28.00;100523.41;1797949;78;21029;-90
2022/09/01 09:13:15;;;;;;;0.90;0.90;;;;;;;35.06;28.07;100548.34;1796917;79;20895;-89
2022/09/01 09:15:59;;;;;;;4.33;1.17;;;;;;;34.98;27.69;100544.73;1781299;79;21376;-90
2022/09/01 09:18:41;;;;;;;2.33;1.45;;;;;;;35.03;28.15;100544.78;1769599;79;20993;-91
2022/09/01 09:21:18;;;;;;;2.52;1.35;;;;;;;35.17;27.59;100554.76;1798673;78;21792;-89
2022/09/01 09:23:50;;;;;;;2.10;1.65;;;;;;;35.37;27.39;100549.49;1798247;77;20899;-91
2022/09/01 09:26:19;;;;;;;2.67;1.45;;;;;;;35.59;26.83;100538.50;1795621;79;20871;-92
2022/09/01 09:28:48;;;;;;;2.65;1.05;;;;;;;35.74;26.84;100539.20;1798271;78;20919;-90
2022/09/01 09:31:36;;;;;;;2.72;1.07;;;;;;;35.99;26.85;100535.81;1769175;79;21088;-92
2022/09/01 09:34:03;;;;;;;5.03;1.20;;;;;;;36.07;26.18;100528.50;1798627;78;21139;-93
2022/09/01 09:36:34;;;;;;;3.83;1.02;;;;;;;35.99;26.50;100534.45;1771640;78;21092;-92
2022/09/01 09:39:15;;;;;;;2.85;1.32;;;;;;;35.90;26.37;100538.21;1799207;79;20915;-89
2022/09/01 09:42:08;;;;;;;3.05;0.72;;;;;;;35.46;26.36;100539.78;1798844;79;20926;-92
2022/09/01 09:44:33;;;;;;;9.40;8.75;;;;;;;35.31;26.34;100542.89;1798873;78;20887;-93
2022/09/01 09:47:00;;;;;;;2.90;2.75;;;;;;;35.11;26.55;100538.87;1798769;77;21948;-91
2022/09/01 09:49:32;;;;;;;5.70;5.30;;;;;;;35.02;26.32;100537.70;1769863;79;20883;-92
2022/09/01 09:52:11;;;;;;;3.87;3.58;;;;;;;34.70;27.08;100545.23;1806072;78;20844;-90
2022/09/01 09:54:42;;;;;;;1.15;1.05;;;;;;;34.54;26.89;100542.83;1806017;77;20927;-91
2022/09/01 09:57:13;;;;;;;2.35;1.05;;;;;;;34.38;27.28;100541.00;1704506;81;20899;-88
2022/09/01 09:59:57;;;;;;;3.50;0.85;;;;;;;34.33;27.28;100538.19;1723130;83;21216;-90
2022/09/01 10:02:38;;;;;;;2.87;1.45;;;;;;;34.19;27.45;100541.27;1750948;79;20914;-92
2022/09/01 10:05:38;;;;;;;0.95;0.80;;;;;;;34.07;27.91;100544.63;1750154;81;20898;-90
2022/09/01 10:08:10;;;;;;;1.17;0.60;;;;;;;33.96;28.04;100546.91;1750485;81;20886;-90
2022/09/01 10:10:46;;;;;;;0.95;0.95;;;;;;;33.89;27.83;100538.09;1750325;81;20894;-93
2022/09/01 10:13:21;;;;;;;1.62;0.50;;;;;;;33.91;27.95;100547.66;1750432;81;20981;-91
2022/09/01 10:15:52;;;;;;;2.90;1.00;;;;;;;34.12;28.19;100539.27;1750337;81;20898;-89
2022/09/01 10:18:24;;;;;;;1.40;0.90;;;;;;;34.03;27.13;100543.47;1749688;81;20850;-92
2022/09/01 10:21:03;;;;;;;1.92;0.60;;;;;;;33.63;27.34;100536.33;1748553;80;20929;-89
2022/09/01 10:23:33;;;;;;;1.17;0.70;;;;;;;33.01;28.06;100535.18;1749736;81;20901;-89
2022/09/01 10:26:14;;;;;;;1.05;0.88;;;;;;;32.44;28.80;100525.61;1723336;82;21163;-90
2022/09/01 10:29:00;;;;;;;2.08;1.85;;;;;;;32.00;28.90;100527.36;1749324;80;21312;-92
2022/09/01 10:31:28;;;;;;;19.75;17.95;;;;;;;31.64;29.33;100531.59;1749536;81;20921;-91
2022/09/01 10:33:55;;;;;;;10.15;9.20;;;;;;;31.38;30.10;100524.98;1748787;82;20953;-91
2022/09/01 10:36:21;;;;;;;8.38;7.70;;;;;;;31.25;30.30;100530.61;1751625;81;20890;-90
2022/09/01 10:38:48;;;;;;;2.83;1.00;;;;;;;31.07;30.40;100529.32;1725672;82;21828;-90
2022/09/01 10:41:55;;;;;;;3.77;1.65;;;;;;;30.75;30.57;100523.56;1750021;81;20936;-89
2022/09/01 10:44:33;;;;;;;8.03;3.27;;;;;;;30.49;30.87;100520.64;1746181;81;20933;-89
2022/09/01 10:47:36;;;;;;;1.32;0.70;;;;;;;30.29;31.23;100521.40;1738523;81;20953;-91
2022/09/01 10:50:31;;;;;;;3.77;1.98;;;;;;;30.03;31.32;100524.63;1719852;83;20914;-89
2022/09/01 10:53:02;;;;;;;3.12;1.20;;;;;;;29.74;32.00;100526.14;1720090;83;21266;-90
2022/09/01 10:55:44;;;;;;;2.22;0.80;;;;;;;29.42;32.35;100531.56;1711486;83;20947;-90
2022/09/01 10:58:36;;;;;;;2.22;0.90;;;;;;;29.21;32.88;100523.80;1707362;84;20907;-89
2022/09/01 11:01:02;;;;;;;2.90;0.90;;;;;;;29.12;32.90;100527.28;1707007;82;21025;-89
2022/09/01 11:03:54;;;;;;;3.20;1.20;;;;;;;29.08;33.65;100522.85;1707209;82;20998;-88
2022/09/01 11:06:55;;;;;;;2.25;1.20;;;;;;;29.11;33.63;100513.48;1707344;82;21216;-91
2022/09/01 11:09:33;;;;;;;1.40;0.70;;;;;;;29.19;33.23;100516.44;1707466;84;20876;-90
2022/09/01 11:12:28;;;;;;;4.05;1.77;;;;;;;29.27;32.96;100517.00;1707636;84;21401;-90
2022/09/01 11:15:01;;;;;;;3.15;0.98;;;;;;;29.39;32.73;100514.42;1707255;84;21010;-88
2022/09/01 11:17:38;;;;;;;2.98;0.90;;;;;;;29.34;32.34;100504.27;1707895;82;21408;-88
2022/09/01 11:20:33;;;;;;;10.35;8.65;;;;;;;29.18;32.30;100499.41;1708075;82;21165;-87
2022/09/01 11:23:29;;;;;;;6.00;5.40;;;;;;;29.12;32.83;100498.92;1708670;83;20915;-86
2022/09/01 11:26:02;;;;;;;2.08;1.15;;;;;;;28.95;32.63;100508.04;1708664;84;20959;-85
2022/09/01 11:28:35;;;;;;;1.30;1.20;;;;;;;28.93;32.89;100503.38;1681755;84;20954;-86
2022/09/01 11:31:28;;;;;;;2.37;0.90;;;;;;;29.06;32.32;100503.80;1708161;84;21519;-89
2022/09/01 11:34:04;;;;;;;3.67;0.90;;;;;;;29.17;32.85;100495.56;1707210;84;21135;-89
2022/09/01 11:36:48;;;;;;;4.12;1.42;;;;;;;29.41;32.54;100486.66;1707117;84;20954;-89
2022/09/01 11:39:28;;;;;;;1.55;1.07;;;;;;;29.58;32.40;100486.95;1706833;83;20895;-88
2022/09/01 11:42:10;;;;;;;1.62;1.35;;;;;;;29.83;32.64;100480.20;1707044;84;20935;-89
2022/09/01 11:44:51;;;;;;;1.55;1.45;;;;;;;30.15;31.70;100479.58;1707196;84;20930;-88
2022/09/01 11:47:31;;;;;;;1.17;0.90;;;;;;;30.44;31.11;100484.47;1706965;84;21180;-87
2022/09/01 11:50:03;;;;;;;4.90;1.27;;;;;;;30.75;30.53;100487.55;1707160;84;21009;-89
2022/09/01 11:52:35;;;;;;;2.87;1.25;;;;;;;31.00;29.49;100485.25;1707520;84;20911;-88